sensor_id;sensor_type;location;lat;lon;timestamp;pressure;altitude;pressure_sealevel;temperature;humidity
39197;BME280;42889;51.112;13.772;2022-12-18T00:01:04;100646.78;;;-10.54;100.00
39197;BME280;42889;51.112;13.772;2022-12-18T00:03:35;100648.59;;;-10.42;100.00
39197;BME280;42889;51.112;13.772;2022-12-18T00:06:02;100648.56;;;-10.48;100.00
39197;BME280;42889;51.112;13.772;2022-12-18T00:08:29;100649.38;;;-10.60;100.00
39197;BME280;42889;51.112;13.772;2022-12-18T00:11:06;100654.56;;;-10.60;100.00
39197;BME280;42889;51.112;13.772;2022-12-18T00:13:34;100652.91;;;-10.46;100.00
39197;BME280;42889;51.112;13.772;2022-12-18T00:16:07;100660.59;;;-10.64;100.00
39197;BME280;42889;51.112;13.772;2022-12-18T00:18:34;100667.50;;;-10.71;100.00
39197;BME280;42889;51.112;13.772;2022-12-18T00:21:04;100670.09;;;-10.68;100.00
39197;BME280;42889;51.112;13.772;2022-12-18T00:23:31;100670.09;;;-10.69;100.00
39197;BME280;42889;51.112;13.772;2022-12-18T00:25:59;100679.75;;;-10.51;100.00
39197;BME280;42889;51.112;13.772;2022-12-18T00:28:26;100677.97;;;-10.55;100.00
39197;BME280;42889;51.112;13.772;2022-12-18T00:31:03;100683.25;;;-10.45;100.00
39197;BME280;42889;51.112;13.772;2022-12-18T00:33:31;100681.56;;;-10.41;100.00
39197;BME280;42889;51.112;13.772;2022-12-18T00:36:01;100684.19;;;-10.37;100.00
39197;BME280;42889;51.112;13.772;2022-12-18T00:38:28;100681.41;;;-10.66;100.00
39197;BME280;42889;51.112;13.772;2022-12-18T00:40:55;100686.50;;;-10.79;100.00
39197;BME280;42889;51.112;13.772;2022-12-18T00:43:21;100689.91;;;-10.85;100.00
39197;BME280;42889;51.112;13.772;2022-12-18T00:45:48;100696.88;;;-10.81;100.00
39197;BME280;42889;51.112;13.772;2022-12-18T00:48:15;100703.03;;;-10.70;100.00
39197;BME280;42889;51.112;13.772;2022-12-18T00:50:42;100697.09;;;-10.52;100.00
39197;BME280;42889;51.112;13.772;2022-12-18T00:53:09;100706.56;;;-10.63;100.00
39197;BME280;42889;51.112;13.772;2022-12-18T00:55:37;100704.78;;;-10.67;100.00
39197;BME280;42889;51.112;13.772;2022-12-18T00:58:05;100710.81;;;-10.74;100.00
39197;BME280;42889;51.112;13.772;2022-12-18T01:00:31;100706.44;;;-10.78;100.00
39197;BME280;42889;51.112;13.772;2022-12-18T01:02:58;100706.47;;;-10.74;100.00
39197;BME280;42889;51.112;13.772;2022-12-18T01:05:25;100704.81;;;-10.66;100.00
39197;BME280;42889;51.112;13.772;2022-12-18T01:07:52;100706.38;;;-10.87;100.00
39197;BME280;42889;51.112;13.772;2022-12-18T01:10:18;100702.88;;;-10.91;100.00
39197;BME280;42889;51.112;13.772;2022-12-18T01:12:45;100697.72;;;-10.83;100.00
39197;BME280;42889;51.112;13.772;2022-12-18T01:15:13;100699.41;;;-10.92;100.00
39197;BME280;42889;51.112;13.772;2022-12-18T01:17:41;100700.13;;;-11.09;100.00
39197;BME280;42889;51.112;13.772;2022-12-18T01:20:09;100702.63;;;-11.20;100.00
39197;BME280;42889;51.112;13.772;2022-12-18T01:22:37;100709.72;;;-11.02;100.00
39197;BME280;42889;51.112;13.772;2022-12-18T01:25:06;100715.00;;;-10.89;100.00
39197;BME280;42889;51.112;13.772;2022-12-18T01:27:33;100722.94;;;-10.75;100.00
39197;BME280;42889;51.112;13.772;2022-12-18T01:30:03;100722.81;;;-10.90;100.00
39197;BME280;42889;51.112;13.772;2022-12-18T01:32:31;100735.03;;;-10.81;100.00
39197;BME280;42889;51.112;13.772;2022-12-18T01:34:58;100722.69;;;-11.04;100.00
39197;BME280;42889;51.112;13.772;2022-12-18T01:37:26;100719.94;;;-11.19;100.00
39197;BME280;42889;51.112;13.772;2022-12-18T01:39:52;100715.53;;;-11.26;100.00
39197;BME280;42889;51.112;13.772;2022-12-18T01:42:21;100724.34;;;-11.15;100.00
39197;BME280;42889;51.112;13.772;2022-12-18T01:45:08;100722.75;;;-10.96;100.00
39197;BME280;42889;51.112;13.772;2022-12-18T01:47:50;100727.91;;;-11.01;100.00
39197;BME280;42889;51.112;13.772;2022-12-18T01:50:28;100725.25;;;-11.07;100.00
39197;BME280;42889;51.112;13.772;2022-12-18T01:53:01;100724.50;;;-10.95;100.00
39197;BME280;42889;51.112;13.772;2022-12-18T01:55:31;100715.72;;;-11.09;100.00
39197;BME280;42889;51.112;13.772;2022-12-18T01:58:00;100725.25;;;-11.07;100.00
39197;BME280;42889;51.112;13.772;2022-12-18T02:00:27;100717.41;;;-11.10;100.00
39197;BME280;42889;51.112;13.772;2022-12-18T02:02:54;100719.19;;;-11.07;100.00
39197;BME280;42889;51.112;13.772;2022-12-18T02:11:03;100730.06;;;-11.44;100.00
39197;BME280;42889;51.112;13.772;2022-12-18T02:16:33;100724.75;;;-11.57;100.00
39197;BME280;42889;51.112;13.772;2022-12-18T02:19:24;100719.56;;;-11.56;100.00
39197;BME280;42889;51.112;13.772;2022-12-18T02:21:58;100716.97;;;-11.57;100.00
39197;BME280;42889;51.112;13.772;2022-12-18T02:24:41;100728.28;;;-11.51;100.00
39197;BME280;42889;51.112;13.772;2022-12-18T02:27:11;100724.06;;;-11.43;100.00
39197;BME280;42889;51.112;13.772;2022-12-18T02:29:44;100732.84;;;-11.30;100.00
39197;BME280;42889;51.112;13.772;2022-12-18T02:32:25;100724.81;;;-11.51;100.00
39197;BME280;42889;51.112;13.772;2022-12-18T02:34:54;100733.47;;;-11.51;100.00
39197;BME280;42889;51.112;13.772;2022-12-18T02:37:26;100725.63;;;-11.54;100.00
39197;BME280;42889;51.112;13.772;2022-12-18T02:39:56;100725.53;;;-11.64;100.00
39197;BME280;42889;51.112;13.772;2022-12-18T02:42:23;100735.19;;;-11.53;100.00
39197;BME280;42889;51.112;13.772;2022-12-18T02:44:51;100741.16;;;-11.60;100.00
39197;BME280;42889;51.112;13.772;2022-12-18T02:47:29;100743.97;;;-11.42;100.00
39197;BME280;42889;51.112;13.772;2022-12-18T02:55:07;100743.06;;;-11.45;100.00
39197;BME280;42889;51.112;13.772;2022-12-18T03:00:08;100737.16;;;-11.29;100.00
39197;BME280;42889;51.112;13.772;2022-12-18T03:02:52;100730.06;;;-11.44;100.00
39197;BME280;42889;51.112;13.772;2022-12-18T03:05:36;100736.25;;;-11.35;100.00
39197;BME280;42889;51.112;13.772;2022-12-18T03:08:08;100733.66;;;-11.34;100.00
39197;BME280;42889;51.112;13.772;2022-12-18T03:10:43;100735.31;;;-11.39;100.00
39197;BME280;42889;51.112;13.772;2022-12-18T03:13:27;100737.22;;;-11.26;100.00
39197;BME280;42889;51.112;13.772;2022-12-18T03:15:57;100740.63;;;-11.31;100.00
39197;BME280;42889;51.112;13.772;2022-12-18T03:18:30;100738.78;;;-11.38;100.00
39197;BME280;42889;51.112;13.772;2022-12-18T03:21:03;100743.13;;;-11.40;100.00
39197;BME280;42889;51.112;13.772;2022-12-18T03:23:39;100741.44;;;-11.32;100.00
39197;BME280;42889;51.112;13.772;2022-12-18T03:26:10;100744.09;;;-11.28;100.00
39197;BME280;42889;51.112;13.772;2022-12-18T03:28:43;100743.56;;;-10.95;100.00
39197;BME280;42889;51.112;13.772;2022-12-18T03:31:14;100741.06;;;-10.87;100.00
39197;BME280;42889;51.112;13.772;2022-12-18T03:33:54;100738.53;;;-10.75;100.00
39197;BME280;42889;51.112;13.772;2022-12-18T03:36:28;100753.53;;;-10.43;100.00
39197;BME280;42889;51.112;13.772;2022-12-18T03:38:58;100753.50;;;-10.46;100.00
39197;BME280;42889;51.112;13.772;2022-12-18T03:41:51;100762.09;;;-10.56;100.00
39197;BME280;42889;51.112;13.772;2022-12-18T03:50:18;100767.06;;;-10.87;100.00
39197;BME280;42889;51.112;13.772;2022-12-18T03:55:35;100760.94;;;-10.92;100.00
39197;BME280;42889;51.112;13.772;2022-12-18T03:58:06;100753.91;;;-11.02;100.00
39197;BME280;42889;51.112;13.772;2022-12-18T04:00:51;100758.28;;;-10.97;100.00
39197;BME280;42889;51.112;13.772;2022-12-18T04:03:20;100765.97;;;-11.06;100.00
39197;BME280;42889;51.112;13.772;2022-12-18T04:05:54;100759.81;;;-11.17;100.00
39197;BME280;42889;51.112;13.772;2022-12-18T04:08:22;100759.78;;;-11.20;100.00
39197;BME280;42889;51.112;13.772;2022-12-18T04:11:01;100754.72;;;-11.08;100.00
39197;BME280;42889;51.112;13.772;2022-12-18T04:13:32;100762.34;;;-11.25;100.00
39197;BME280;42889;51.112;13.772;2022-12-18T04:16:01;100775.50;;;-11.08;100.00
39197;BME280;42889;51.112;13.772;2022-12-18T04:18:29;100775.50;;;-11.09;100.00
39197;BME280;42889;51.112;13.772;2022-12-18T04:20:58;100773.59;;;-11.24;100.00
39197;BME280;42889;51.112;13.772;2022-12-18T04:23:25;100768.22;;;-11.41;100.00
39197;BME280;42889;51.112;13.772;2022-12-18T04:25:55;100771.63;;;-11.44;100.00
39197;BME280;42889;51.112;13.772;2022-12-18T04:28:36;100777.69;;;-11.45;100.00
39197;BME280;42889;51.112;13.772;2022-12-18T04:31:03;100776.03;;;-11.41;100.00
39197;BME280;42889;51.112;13.772;2022-12-18T04:33:30;100766.34;;;-11.53;100.00
39197;BME280;42889;51.112;13.772;2022-12-18T04:35:57;100775.03;;;-11.49;100.00
39197;BME280;42889;51.112;13.772;2022-12-18T04:38:24;100779.50;;;-11.39;100.00
39197;BME280;42889;51.112;13.772;2022-12-18T04:41:00;100788.06;;;-11.46;100.00
39197;BME280;42889;51.112;13.772;2022-12-18T04:43:27;100782.03;;;-11.44;100.00
39197;BME280;42889;51.112;13.772;2022-12-18T04:45:53;100786.41;;;-11.41;100.00
39197;BME280;42889;51.112;13.772;2022-12-18T04:48:20;100789.81;;;-11.45;100.00
39197;BME280;42889;51.112;13.772;2022-12-18T04:50:47;100788.88;;;-11.50;100.00
39197;BME280;42889;51.112;13.772;2022-12-18T04:53:14;100791.59;;;-11.41;100.00
39197;BME280;42889;51.112;13.772;2022-12-18T04:55:40;100790.69;;;-11.43;100.00
39197;BME280;42889;51.112;13.772;2022-12-18T04:58:07;100783.69;;;-11.53;100.00
39197;BME280;42889;51.112;13.772;2022-12-18T05:00:35;100775.84;;;-11.55;100.00
39197;BME280;42889;51.112;13.772;2022-12-18T05:03:02;100780.31;;;-11.43;100.00
39197;BME280;42889;51.112;13.772;2022-12-18T05:05:29;100782.97;;;-11.38;100.00
39197;BME280;42889;51.112;13.772;2022-12-18T05:07:55;100775.91;;;-11.50;100.00
39197;BME280;42889;51.112;13.772;2022-12-18T05:10:22;100775.88;;;-11.53;100.00
39197;BME280;42889;51.112;13.772;2022-12-18T05:12:49;100784.69;;;-11.37;100.00
39197;BME280;42889;51.112;13.772;2022-12-18T05:15:31;100786.56;;;-11.27;100.00
39197;BME280;42889;51.112;13.772;2022-12-18T05:17:58;100781.41;;;-11.23;100.00
39197;BME280;42889;51.112;13.772;2022-12-18T05:20:26;100777.94;;;-11.23;100.00
39197;BME280;42889;51.112;13.772;2022-12-18T05:22:53;100788.28;;;-11.29;100.00
39197;BME280;42889;51.112;13.772;2022-12-18T05:25:20;100785.63;;;-11.34;100.00
39197;BME280;42889;51.112;13.772;2022-12-18T05:27:47;100794.34;;;-11.27;100.00
39197;BME280;42889;51.112;13.772;2022-12-18T05:30:14;100790.09;;;-11.21;100.00
39197;BME280;42889;51.112;13.772;2022-12-18T05:32:41;100781.50;;;-11.13;100.00
39197;BME280;42889;51.112;13.772;2022-12-18T05:35:10;100791.78;;;-11.26;100.00
39197;BME280;42889;51.112;13.772;2022-12-18T05:37:37;100787.53;;;-11.19;100.00
39197;BME280;42889;51.112;13.772;2022-12-18T05:40:09;100784.84;;;-11.25;100.00
39197;BME280;42889;51.112;13.772;2022-12-18T05:42:36;100788.09;;;-11.45;100.00
39197;BME280;42889;51.112;13.772;2022-12-18T05:45:03;100787.16;;;-11.48;100.00
39197;BME280;42889;51.112;13.772;2022-12-18T05:47:30;100793.97;;;-11.59;100.00
39197;BME280;42889;51.112;13.772;2022-12-18T05:49:57;100779.28;;;-11.57;100.00
39197;BME280;42889;51.112;13.772;2022-12-18T05:52:23;100791.41;;;-11.55;100.00
39197;BME280;42889;51.112;13.772;2022-12-18T05:54:50;100797.47;;;-11.56;100.00
39197;BME280;42889;51.112;13.772;2022-12-18T05:57:16;100791.22;;;-11.72;100.00
39197;BME280;42889;51.112;13.772;2022-12-18T05:59:43;100801.66;;;-11.69;100.00
39197;BME280;42889;51.112;13.772;2022-12-18T06:02:10;100802.38;;;-11.79;100.00
39197;BME280;42889;51.112;13.772;2022-12-18T06:04:37;100799.84;;;-11.73;100.00
39197;BME280;42889;51.112;13.772;2022-12-18T06:07:03;100800.78;;;-11.68;100.00
39197;BME280;42889;51.112;13.772;2022-12-18T06:09:30;100802.41;;;-11.76;100.00
39197;BME280;42889;51.112;13.772;2022-12-18T06:11:57;100797.16;;;-11.85;100.00
39197;BME280;42889;51.112;13.772;2022-12-18T06:14:23;100802.31;;;-11.86;100.00
39197;BME280;42889;51.112;13.772;2022-12-18T06:16:51;100807.56;;;-11.79;100.00
39197;BME280;42889;51.112;13.772;2022-12-18T06:19:18;100806.06;;;-11.61;100.00
39197;BME280;42889;51.112;13.772;2022-12-18T06:21:45;100809.31;;;-11.78;100.00
39197;BME280;42889;51.112;13.772;2022-12-18T06:24:11;100810.19;;;-11.76;100.00
39197;BME280;42889;51.112;13.772;2022-12-18T06:26:38;100808.59;;;-11.68;100.00
39197;BME280;42889;51.112;13.772;2022-12-18T06:29:05;100817.31;;;-11.64;100.00
39197;BME280;42889;51.112;13.772;2022-12-18T06:31:32;100811.31;;;-11.57;100.00
39197;BME280;42889;51.112;13.772;2022-12-18T06:34:01;100816.53;;;-11.54;100.00
39197;BME280;42889;51.112;13.772;2022-12-18T06:36:28;100824.53;;;-11.40;100.00
39197;BME280;42889;51.112;13.772;2022-12-18T06:38:56;100825.38;;;-11.41;100.00
39197;BME280;42889;51.112;13.772;2022-12-18T06:41:23;100829.00;;;-11.27;100.00
39197;BME280;42889;51.112;13.772;2022-12-18T06:43:50;100822.31;;;-11.06;100.00
39197;BME280;42889;51.112;13.772;2022-12-18T06:46:23;100820.56;;;-11.07;100.00
39197;BME280;42889;51.112;13.772;2022-12-18T06:48:50;100837.16;;;-10.95;100.00
39197;BME280;42889;51.112;13.772;2022-12-18T06:51:18;100834.63;;;-10.89;100.00
39197;BME280;42889;51.112;13.772;2022-12-18T06:53:45;100838.06;;;-10.90;100.00
39197;BME280;42889;51.112;13.772;2022-12-18T06:56:11;100835.41;;;-10.97;100.00
39197;BME280;42889;51.112;13.772;2022-12-18T06:58:38;100835.34;;;-11.02;100.00
39197;BME280;42889;51.112;13.772;2022-12-18T07:01:07;100839.56;;;-11.14;100.00
39197;BME280;42889;51.112;13.772;2022-12-18T07:03:35;100836.97;;;-11.14;100.00
39197;BME280;42889;51.112;13.772;2022-12-18T07:06:03;100843.72;;;-11.27;100.00
39197;BME280;42889;51.112;13.772;2022-12-18T07:08:30;100847.09;;;-11.36;100.00
39197;BME280;42889;51.112;13.772;2022-12-18T07:10:57;100853.16;;;-11.37;100.00
39197;BME280;42889;51.112;13.772;2022-12-18T07:13:24;100860.84;;;-11.43;100.00
39197;BME280;42889;51.112;13.772;2022-12-18T07:15:51;100856.53;;;-11.43;100.00
39197;BME280;42889;51.112;13.772;2022-12-18T07:18:17;100859.22;;;-11.35;100.00
39197;BME280;42889;51.112;13.772;2022-12-18T07:20:44;100854.16;;;-11.24;100.00
39197;BME280;42889;51.112;13.772;2022-12-18T07:23:11;100853.16;;;-11.34;100.00
39197;BME280;42889;51.112;13.772;2022-12-18T07:25:38;100851.50;;;-11.29;100.00
39197;BME280;42889;51.112;13.772;2022-12-18T07:28:05;100854.84;;;-11.37;100.00
39197;BME280;42889;51.112;13.772;2022-12-18T07:30:32;100853.97;;;-11.38;100.00
39197;BME280;42889;51.112;13.772;2022-12-18T07:32:59;100851.41;;;-11.36;100.00
39197;BME280;42889;51.112;13.772;2022-12-18T07:35:25;100855.09;;;-11.18;100.00
39197;BME280;42889;51.112;13.772;2022-12-18T07:37:52;100868.97;;;-11.16;100.00
39197;BME280;42889;51.112;13.772;2022-12-18T07:40:19;100869.94;;;-11.07;100.00
39197;BME280;42889;51.112;13.772;2022-12-18T07:42:45;100873.53;;;-10.96;100.00
39197;BME280;42889;51.112;13.772;2022-12-18T07:45:12;100872.69;;;-10.95;100.00
39197;BME280;42889;51.112;13.772;2022-12-18T07:47:38;100876.34;;;-10.79;100.00
39197;BME280;42889;51.112;13.772;2022-12-18T07:50:08;100882.44;;;-10.76;100.00
39197;BME280;42889;51.112;13.772;2022-12-18T07:52:35;100880.72;;;-10.75;100.00
39197;BME280;42889;51.112;13.772;2022-12-18T07:55:02;100880.03;;;-10.56;100.00
39197;BME280;42889;51.112;13.772;2022-12-18T07:57:29;100887.94;;;-10.48;100.00
39197;BME280;42889;51.112;13.772;2022-12-18T08:00:16;100881.19;;;-10.23;100.00
39197;BME280;42889;51.112;13.772;2022-12-18T08:02:43;100880.47;;;-10.02;100.00
39197;BME280;42889;51.112;13.772;2022-12-18T08:05:10;100878.06;;;-9.73;100.00
39197;BME280;42889;51.112;13.772;2022-12-18T08:07:39;100872.13;;;-9.54;100.00
39197;BME280;42889;51.112;13.772;2022-12-18T08:10:06;100866.06;;;-9.45;100.00
39197;BME280;42889;51.112;13.772;2022-12-18T08:12:33;100864.44;;;-9.23;100.00
39197;BME280;42889;51.112;13.772;2022-12-18T08:15:00;100871.50;;;-9.06;100.00
39197;BME280;42889;51.112;13.772;2022-12-18T08:17:30;100862.03;;;-8.65;100.00
39197;BME280;42889;51.112;13.772;2022-12-18T08:19:57;100849.88;;;-8.11;100.00
39197;BME280;42889;51.112;13.772;2022-12-18T08:22:25;100852.47;;;-8.08;100.00
39197;BME280;42889;51.112;13.772;2022-12-18T08:24:52;100848.13;;;-7.91;100.00
39197;BME280;42889;51.112;13.772;2022-12-18T08:27:19;100848.94;;;-7.75;100.00
39197;BME280;42889;51.112;13.772;2022-12-18T08:29:57;100859.38;;;-7.61;100.00
39197;BME280;42889;51.112;13.772;2022-12-18T08:32:25;100859.34;;;-7.46;100.00
39197;BME280;42889;51.112;13.772;2022-12-18T08:34:54;100861.88;;;-7.19;100.00
39197;BME280;42889;51.112;13.772;2022-12-18T08:37:24;100864.47;;;-7.17;100.00
39197;BME280;42889;51.112;13.772;2022-12-18T08:39:55;100865.31;;;-7.09;100.00
39197;BME280;42889;51.112;13.772;2022-12-18T08:42:25;100865.38;;;-7.20;100.00
39197;BME280;42889;51.112;13.772;2022-12-18T08:45:11;100863.56;;;-7.05;100.00
39197;BME280;42889;51.112;13.772;2022-12-18T08:47:37;100867.03;;;-6.97;100.00
39197;BME280;42889;51.112;13.772;2022-12-18T08:50:05;100857.38;;;-6.91;100.00
39197;BME280;42889;51.112;13.772;2022-12-18T08:52:32;100857.34;;;-6.87;100.00
39197;BME280;42889;51.112;13.772;2022-12-18T08:55:00;100857.34;;;-6.83;100.00
39197;BME280;42889;51.112;13.772;2022-12-18T08:57:29;100867.69;;;-6.61;100.00
39197;BME280;42889;51.112;13.772;2022-12-18T08:59:56;100873.75;;;-6.53;100.00
39197;BME280;42889;51.112;13.772;2022-12-18T09:02:23;100877.22;;;-6.50;100.00
39197;BME280;42889;51.112;13.772;2022-12-18T09:04:49;100870.88;;;-6.18;100.00
39197;BME280;42889;51.112;13.772;2022-12-18T09:07:22;100865.44;;;-5.92;100.00
39197;BME280;42889;51.112;13.772;2022-12-18T09:09:50;100867.78;;;-5.65;100.00
39197;BME280;42889;51.112;13.772;2022-12-18T09:12:17;100875.34;;;-5.36;100.00
39197;BME280;42889;51.112;13.772;2022-12-18T09:14:46;100873.16;;;-5.00;100.00
39197;BME280;42889;51.112;13.772;2022-12-18T09:17:14;100872.53;;;-4.53;100.00
39197;BME280;42889;51.112;13.772;2022-12-18T09:19:42;100884.78;;;-4.52;100.00
39197;BME280;42889;51.112;13.772;2022-12-18T09:22:09;100886.72;;;-4.64;100.00
39197;BME280;42889;51.112;13.772;2022-12-18T09:24:38;100889.81;;;-5.01;100.00
39197;BME280;42889;51.112;13.772;2022-12-18T09:27:05;100896.09;;;-5.14;100.00
39197;BME280;42889;51.112;13.772;2022-12-18T09:29:33;100898.00;;;-5.27;100.00
39197;BME280;42889;51.112;13.772;2022-12-18T09:32:02;100906.53;;;-5.11;100.00
39197;BME280;42889;51.112;13.772;2022-12-18T09:34:29;100900.47;;;-5.13;100.00
39197;BME280;42889;51.112;13.772;2022-12-18T09:36:57;100905.69;;;-5.12;100.00
39197;BME280;42889;51.112;13.772;2022-12-18T09:39:23;100904.06;;;-5.23;100.00
39197;BME280;42889;51.112;13.772;2022-12-18T09:41:55;100902.97;;;-5.04;100.00
39197;BME280;42889;51.112;13.772;2022-12-18T09:44:36;100897.69;;;-5.01;100.00
39197;BME280;42889;51.112;13.772;2022-12-18T09:47:18;100901.06;;;-4.91;100.00
39197;BME280;42889;51.112;13.772;2022-12-18T09:49:50;100894.56;;;-4.61;100.00
39197;BME280;42889;51.112;13.772;2022-12-18T09:52:34;100890.53;;;-4.25;100.00
39197;BME280;42889;51.112;13.772;2022-12-18T09:55:10;100890.22;;;-3.53;100.00
39197;BME280;42889;51.112;13.772;2022-12-18T09:57:44;100877.97;;;-3.07;100.00
39197;BME280;42889;51.112;13.772;2022-12-18T10:00:21;100879.25;;;-2.85;97.41
39197;BME280;42889;51.112;13.772;2022-12-18T10:02:58;100871.91;;;-2.71;96.59
39197;BME280;42889;51.112;13.772;2022-12-18T10:05:33;100867.31;;;-3.01;95.78
39197;BME280;42889;51.112;13.772;2022-12-18T10:10:50;100858.09;;;-3.24;97.26
39197;BME280;42889;51.112;13.772;2022-12-18T10:13:39;100838.53;;;-2.70;95.58
39197;BME280;42889;51.112;13.772;2022-12-18T10:16:19;100834.22;;;-2.73;94.30
39197;BME280;42889;51.112;13.772;2022-12-18T10:21:53;100827.94;;;-2.67;93.05
39197;BME280;42889;51.112;13.772;2022-12-18T10:24:39;100834.72;;;-2.97;94.51
39197;BME280;42889;51.112;13.772;2022-12-18T10:27:21;100832.25;;;-3.05;94.65
39197;BME280;42889;51.112;13.772;2022-12-18T10:29:48;100823.31;;;-2.96;96.02
39197;BME280;42889;51.112;13.772;2022-12-18T10:32:24;100815.91;;;-3.21;96.02
39197;BME280;42889;51.112;13.772;2022-12-18T10:34:54;100817.00;;;-2.89;94.85
39197;BME280;42889;51.112;13.772;2022-12-18T10:37:28;100803.16;;;-2.60;93.13
39197;BME280;42889;51.112;13.772;2022-12-18T10:42:33;100802.09;;;-1.47;88.88
39197;BME280;42889;51.112;13.772;2022-12-18T10:45:20;100789.38;;;-1.03;84.24
39197;BME280;42889;51.112;13.772;2022-12-18T10:47:48;100781.47;;;-0.75;81.81
39197;BME280;42889;51.112;13.772;2022-12-18T10:50:26;100783.47;;;-0.01;79.41
39197;BME280;42889;51.112;13.772;2022-12-18T10:53:20;100775.03;;;-0.12;76.68
39197;BME280;42889;51.112;13.772;2022-12-18T10:55:48;100776.91;;;0.61;74.72
39197;BME280;42889;51.112;13.772;2022-12-18T10:58:28;100781.50;;;1.02;71.08
39197;BME280;42889;51.112;13.772;2022-12-18T11:01:09;100789.59;;;1.45;67.11
39197;BME280;42889;51.112;13.772;2022-12-18T11:03:41;100778.47;;;1.79;64.66
39197;BME280;42889;51.112;13.772;2022-12-18T11:06:14;100783.53;;;2.27;64.22
39197;BME280;42889;51.112;13.772;2022-12-18T11:08:43;100781.53;;;2.32;62.88
39197;BME280;42889;51.112;13.772;2022-12-18T11:11:21;100778.06;;;2.71;59.16
39197;BME280;42889;51.112;13.772;2022-12-18T11:16:48;100768.66;;;3.58;55.06
39197;BME280;42889;51.112;13.772;2022-12-18T11:19:39;100769.69;;;1.99;59.03
39197;BME280;42889;51.112;13.772;2022-12-18T11:22:22;100763.72;;;1.06;61.84
39197;BME280;42889;51.112;13.772;2022-12-18T11:24:57;100765.25;;;-0.37;69.24
39197;BME280;42889;51.112;13.772;2022-12-18T11:28:03;100756.38;;;-0.90;74.10
39197;BME280;42889;51.112;13.772;2022-12-18T11:30:36;100769.00;;;-1.29;76.40
39197;BME280;42889;51.112;13.772;2022-12-18T11:33:05;100773.69;;;-1.70;76.86
39197;BME280;42889;51.112;13.772;2022-12-18T11:38:23;100772.94;;;-2.45;80.18
39197;BME280;42889;51.112;13.772;2022-12-18T11:40:57;100774.31;;;-2.66;85.32
39197;BME280;42889;51.112;13.772;2022-12-18T11:43:29;100770.81;;;-3.05;87.85
39197;BME280;42889;51.112;13.772;2022-12-18T11:46:08;100767.38;;;-3.09;89.76
39197;BME280;42889;51.112;13.772;2022-12-18T11:49:34;100769.38;;;-3.19;89.04
39197;BME280;42889;51.112;13.772;2022-12-18T11:52:25;100775.13;;;-3.43;89.99
39197;BME280;42889;51.112;13.772;2022-12-18T11:54:56;100774.31;;;-3.47;89.68
39197;BME280;42889;51.112;13.772;2022-12-18T11:57:53;100782.09;;;-3.40;89.42
39197;BME280;42889;51.112;13.772;2022-12-18T12:00:23;100783.22;;;-3.54;90.13
39197;BME280;42889;51.112;13.772;2022-12-18T12:24:51;100788.19;;;-3.83;93.91
39197;BME280;42889;51.112;13.772;2022-12-18T12:32:31;100804.88;;;-3.84;91.58
39197;BME280;42889;51.112;13.772;2022-12-18T12:35:12;100803.66;;;-3.66;91.47
39197;BME280;42889;51.112;13.772;2022-12-18T12:40:32;100812.44;;;-3.69;89.21
39197;BME280;42889;51.112;13.772;2022-12-18T12:43:26;100812.69;;;-3.81;89.19
39197;BME280;42889;51.112;13.772;2022-12-18T12:45:58;100825.91;;;-3.84;90.78
39197;BME280;42889;51.112;13.772;2022-12-18T12:51:04;100816.56;;;-4.02;91.73
39197;BME280;42889;51.112;13.772;2022-12-18T12:53:37;100814.72;;;-3.97;91.28
39197;BME280;42889;51.112;13.772;2022-12-18T12:56:08;100811.09;;;-3.91;90.52
39197;BME280;42889;51.112;13.772;2022-12-18T12:58:57;100805.91;;;-3.96;90.80
39197;BME280;42889;51.112;13.772;2022-12-18T13:05:02;100795.41;;;-3.96;90.63
39197;BME280;42889;51.112;13.772;2022-12-18T13:07:41;100797.47;;;-4.12;90.69
39197;BME280;42889;51.112;13.772;2022-12-18T13:15:47;100794.22;;;-4.29;91.05
39197;BME280;42889;51.112;13.772;2022-12-18T13:18:22;100790.72;;;-4.30;91.89
39197;BME280;42889;51.112;13.772;2022-12-18T13:21:15;100793.69;;;-4.49;92.57
39197;BME280;42889;51.112;13.772;2022-12-18T13:23:45;100798.06;;;-4.48;92.85
39197;BME280;42889;51.112;13.772;2022-12-18T13:28:55;100796.72;;;-4.77;94.20
39197;BME280;42889;51.112;13.772;2022-12-18T13:34:40;100803.22;;;-5.06;95.52
39197;BME280;42889;51.112;13.772;2022-12-18T13:39:59;100795.25;;;-4.96;96.62
39197;BME280;42889;51.112;13.772;2022-12-18T13:42:36;100795.25;;;-4.96;96.29
39197;BME280;42889;51.112;13.772;2022-12-18T13:45:40;100794.28;;;-4.91;96.34
39197;BME280;42889;51.112;13.772;2022-12-18T13:48:22;100794.16;;;-4.82;95.70
39197;BME280;42889;51.112;13.772;2022-12-18T13:50:53;100789.84;;;-4.86;95.59
39197;BME280;42889;51.112;13.772;2022-12-18T13:53:58;100791.38;;;-4.72;95.99
39197;BME280;42889;51.112;13.772;2022-12-18T13:56:17;100785.50;;;-4.88;96.05
39197;BME280;42889;51.112;13.772;2022-12-18T13:58:46;100783.63;;;-4.80;96.62
39197;BME280;42889;51.112;13.772;2022-12-18T14:01:29;100791.56;;;-4.83;96.49
39197;BME280;42889;51.112;13.772;2022-12-18T14:04:12;100784.56;;;-4.83;96.35
39197;BME280;42889;51.112;13.772;2022-12-18T14:06:39;100785.50;;;-4.88;96.14
39197;BME280;42889;51.112;13.772;2022-12-18T14:09:08;100791.91;;;-5.09;96.55
39197;BME280;42889;51.112;13.772;2022-12-18T14:11:38;100798.84;;;-5.04;96.90
39197;BME280;42889;51.112;13.772;2022-12-18T14:14:06;100802.59;;;-5.21;97.68
39197;BME280;42889;51.112;13.772;2022-12-18T14:16:33;100799.88;;;-5.15;98.09
39197;BME280;42889;51.112;13.772;2022-12-18T14:19:02;100804.38;;;-5.28;98.68